Time;durP1;ratioP1;P1;durP2;ratioP2;P2;SDS_P1;SDS_P2;PMS_P1;PMS_P2;Temp;Humidity;BMP_temperature;BMP_pressure;BME280_temperature;BME280_humidity;BME280_pressure;Samples;Min_cycle;Max_cycle;Signal;HPM_P1;HPM_P2
2023/11/14 00:01:02;;;;;;;;;;;;;;;5.36;82.82;99625.42;106194;1261;125385;-84
2023/11/14 00:03:48;;;;;;;;;;;;;;;5.38;82.61;99624.27;106421;1261;75515;-86
2023/11/14 00:06:18;;;;;;;;;;;;;;;5.38;82.55;99612.63;106499;1258;64724;-86
2023/11/14 00:08:45;;;;;;;;;;;;;;;5.39;82.46;99603.09;106438;1262;122803;-86
2023/11/14 00:11:11;;;;;;;;;;;;;;;5.39;82.40;99603.43;106352;1264;62189;-87
2023/11/14 00:13:38;;;;;;;;;;;;;;;5.40;82.25;99598.59;106272;1261;124549;-87
2023/11/14 00:16:05;;;;;;;;;;;;;;;5.41;82.18;99599.64;106318;1265;74230;-86
2023/11/14 00:18:32;;;;;;;;;;;;;;;5.40;82.06;99600.67;106314;1257;124056;-86
2023/11/14 00:20:58;;;;;;;;;;;;;;;5.41;82.06;99598.44;106282;1259;71419;-85
2023/11/14 00:23:25;;;;;;;;;;;;;;;5.43;81.95;99599.88;106090;1263;62027;-87
2023/11/14 00:25:52;;;;;;;;;;;;;;;5.43;81.96;99602.49;106162;1259;124167;-84
2023/11/14 00:28:18;;;;;;;;;;;;;;;5.42;82.03;99602.47;106318;1259;74489;-85
2023/11/14 00:30:45;;;;;;;;;;;;;;;5.44;82.09;99597.46;105879;1264;124100;-85
2023/11/14 00:33:12;;;;;;;;;;;;;;;5.43;82.16;99588.92;106186;1261;72690;-86
2023/11/14 00:35:38;;;;;;;;;;;;;;;5.42;82.18;99579.70;106188;1258;60769;-86
2023/11/14 00:38:05;;;;;;;;;;;;;;;5.40;82.12;99581.20;106093;1257;124536;-86
2023/11/14 00:40:32;;;;;;;;;;;;;;;5.37;82.10;99583.20;106436;1258;73981;-86
2023/11/14 00:42:58;;;;;;;;;;;;;;;5.33;82.13;99575.42;106257;1261;124777;-86
2023/11/14 00:45:27;;;;;;;;;;;;;;;5.27;82.04;99569.70;106356;1262;71505;-86
2023/11/14 00:47:54;;;;;;;;;;;;;;;5.25;82.07;99567.05;106364;1261;60182;-86
2023/11/14 00:50:21;;;;;;;;;;;;;;;5.25;82.18;99564.44;106307;1262;124756;-86
2023/11/14 00:52:47;;;;;;;;;;;;;;;5.23;82.08;99566.13;106441;1261;75495;-86
2023/11/14 00:55:14;;;;;;;;;;;;;;;5.22;82.04;99573.39;106345;1257;124992;-87
2023/11/14 00:57:41;;;;;;;;;;;;;;;5.21;82.19;99575.98;106346;1261;71510;-86
2023/11/14 01:00:08;;;;;;;;;;;;;;;5.22;82.33;99577.41;106350;1262;62110;-87
2023/11/14 01:02:34;;;;;;;;;;;;;;;5.24;82.41;99580.23;106195;1264;125169;-87
2023/11/14 01:05:01;;;;;;;;;;;;;;;5.26;82.42;99573.16;106213;1259;75462;-87
2023/11/14 01:07:28;;;;;;;;;;;;;;;5.26;82.26;99567.95;106199;1261;125166;-87
2023/11/14 01:09:55;;;;;;;;;;;;;;;5.27;82.12;99565.17;106250;1264;71069;-87
2023/11/14 01:12:22;;;;;;;;;;;;;;;5.27;82.22;99563.95;106389;1258;62096;-86
2023/11/14 01:14:48;;;;;;;;;;;;;;;5.27;82.22;99563.44;106199;1257;124822;-87
2023/11/14 01:17:15;;;;;;;;;;;;;;;5.27;82.26;99554.75;106248;1258;75511;-86
2023/11/14 01:19:42;;;;;;;;;;;;;;;5.29;82.27;99549.75;106319;1257;125109;-85
2023/11/14 01:22:09;;;;;;;;;;;;;;;5.29;82.25;99542.63;106131;1263;72734;-85
2023/11/14 01:24:36;;;;;;;;;;;;;;;5.29;82.31;99534.27;106230;1259;123926;-85
2023/11/14 01:27:02;;;;;;;;;;;;;;;5.30;82.21;99527.32;106419;1257;61985;-86
2023/11/14 01:29:29;;;;;;;;;;;;;;;5.30;82.36;99524.20;106451;1257;72971;-85
2023/11/14 01:31:56;;;;;;;;;;;;;;;5.30;82.39;99525.96;106313;1257;125297;-86
2023/11/14 01:34:23;;;;;;;;;;;;;;;5.33;82.46;99536.46;106481;1262;71459;-86
2023/11/14 01:36:51;;;;;;;;;;;;;;;5.34;82.49;99534.23;106504;1260;125344;-86
2023/11/14 01:39:17;;;;;;;;;;;;;;;5.33;82.32;99531.08;106347;1263;61992;-86
2023/11/14 01:41:45;;;;;;;;;;;;;;;5.33;82.45;99526.21;106293;1259;73950;-87
2023/11/14 01:44:11;;;;;;;;;;;;;;;5.28;82.20;99517.54;106259;1258;125042;-86
2023/11/14 01:46:38;;;;;;;;;;;;;;;5.25;82.18;99510.02;106280;1258;71360;-86
2023/11/14 01:49:05;;;;;;;;;;;;;;;5.24;82.12;99510.48;106332;1261;125139;-85
2023/11/14 01:51:31;;;;;;;;;;;;;;;5.22;81.99;99506.62;106622;1257;62278;-86
2023/11/14 01:53:58;;;;;;;;;;;;;;;5.22;81.98;99503.47;106390;1261;74663;-86
2023/11/14 01:56:24;;;;;;;;;;;;;;;5.19;82.02;99499.39;106210;1258;124793;-86
2023/11/14 01:58:51;;;;;;;;;;;;;;;5.15;81.94;99493.20;106437;1258;72666;-86
2023/11/14 02:01:21;;;;;;;;;;;;;;;5.14;82.12;99490.59;106184;1264;125236;-87
2023/11/14 02:03:48;;;;;;;;;;;;;;;5.13;81.99;99486.17;106412;1257;61972;-84
2023/11/14 02:06:14;;;;;;;;;;;;;;;5.13;82.04;99483.25;106351;1259;73908;-84
2023/11/14 02:08:41;;;;;;;;;;;;;;;5.12;82.02;99479.20;106342;1258;124789;-83
2023/11/14 02:11:08;;;;;;;;;;;;;;;5.10;81.97;99476.02;106297;1257;71411;-83
2023/11/14 02:13:34;;;;;;;;;;;;;;;5.08;81.94;99473.02;106181;1257;124477;-84
2023/11/14 02:16:01;;;;;;;;;;;;;;;5.05;81.93;99473.29;106436;1262;61977;-84
2023/11/14 02:18:28;;;;;;;;;;;;;;;5.03;81.99;99475.33;106266;1263;123287;-85
2023/11/14 02:20:54;;;;;;;;;;;;;;;5.00;82.11;99469.88;106506;1258;64989;-85
2023/11/14 02:23:21;;;;;;;;;;;;;;;4.97;82.05;99470.46;106378;1263;71392;-84
2023/11/14 02:25:47;;;;;;;;;;;;;;;4.94;82.14;99468.64;106208;1263;124177;-84
2023/11/14 02:28:14;;;;;;;;;;;;;;;4.91;82.18;99465.08;106320;1258;62053;-84
2023/11/14 02:30:41;;;;;;;;;;;;;;;4.88;82.27;99458.23;106230;1263;122973;-84
2023/11/14 02:33:07;;;;;;;;;;;;;;;4.85;82.26;99462.14;106375;1262;65353;-85
2023/11/14 02:35:34;;;;;;;;;;;;;;;4.82;82.27;99464.70;106195;1263;71973;-84
2023/11/14 02:38:01;;;;;;;;;;;;;;;4.80;82.42;99461.15;106192;1262;124606;-84
2023/11/14 02:40:28;;;;;;;;;;;;;;;4.78;82.47;99453.45;106314;1262;61995;-84
2023/11/14 02:42:55;;;;;;;;;;;;;;;4.75;82.54;99447.09;106141;1261;124895;-83
2023/11/14 02:45:21;;;;;;;;;;;;;;;4.72;82.60;99430.35;106118;1266;63784;-84
2023/11/14 02:47:49;;;;;;;;;;;;;;;4.71;82.74;99423.18;106309;1260;71430;-83
2023/11/14 02:50:26;;;;;;;;;;;;;;;4.68;82.78;99421.38;106071;1257;124836;-83
2023/11/14 02:52:53;;;;;;;;;;;;;;;4.70;82.89;99422.81;106321;1263;62734;-84
2023/11/14 02:55:19;;;;;;;;;;;;;;;4.71;82.96;99419.02;106286;1258;124748;-85
2023/11/14 02:57:46;;;;;;;;;;;;;;;4.70;83.05;99412.91;106385;1258;66343;-84
2023/11/14 03:00:16;;;;;;;;;;;;;;;4.71;83.08;99409.46;106410;1259;71425;-84
2023/11/14 03:02:43;;;;;;;;;;;;;;;4.72;83.13;99407.23;106122;1257;124656;-84
2023/11/14 03:05:10;;;;;;;;;;;;;;;4.73;83.22;99399.77;106222;1263;62147;-85
2023/11/14 03:07:37;;;;;;;;;;;;;;;4.73;83.25;99398.91;106139;1264;124611;-84
2023/11/14 03:10:03;;;;;;;;;;;;;;;4.73;83.15;99394.02;106093;1260;64994;-84
2023/11/14 03:12:30;;;;;;;;;;;;;;;4.73;83.35;99394.77;106122;1258;125348;-83
2023/11/14 03:14:58;;;;;;;;;;;;;;;4.73;83.42;99391.95;106222;1263;62072;-83
2023/11/14 03:17:25;;;;;;;;;;;;;;;4.74;83.44;99389.55;106416;1258;62091;-85
2023/11/14 03:19:51;;;;;;;;;;;;;;;4.72;83.41;99384.80;106170;1260;124870;-85
2023/11/14 03:22:18;;;;;;;;;;;;;;;4.72;83.55;99381.70;106445;1259;66294;-85
2023/11/14 03:24:44;;;;;;;;;;;;;;;4.74;83.55;99385.39;106116;1264;125126;-85
2023/11/14 03:27:11;;;;;;;;;;;;;;;4.76;83.77;99388.91;106271;1260;61993;-85
2023/11/14 03:29:38;;;;;;;;;;;;;;;4.76;83.73;99390.48;106310;1258;62099;-86
2023/11/14 03:32:04;;;;;;;;;;;;;;;4.75;83.69;99395.52;106216;1257;125153;-85
2023/11/14 03:34:31;;;;;;;;;;;;;;;4.76;83.79;99391.17;106256;1257;65035;-85
2023/11/14 03:36:58;;;;;;;;;;;;;;;4.77;83.65;99387.73;106161;1258;125795;-86
2023/11/14 03:39:26;;;;;;;;;;;;;;;4.76;83.73;99386.32;106315;1263;60880;-86
2023/11/14 03:41:53;;;;;;;;;;;;;;;4.78;83.74;99391.73;106372;1262;62088;-85
2023/11/14 03:44:19;;;;;;;;;;;;;;;4.78;83.77;99385.66;106281;1257;125009;-86
2023/11/14 03:46:46;;;;;;;;;;;;;;;4.78;83.79;99378.88;106215;1257;65562;-86
2023/11/14 03:49:13;;;;;;;;;;;;;;;4.76;83.77;99377.11;106246;1257;125033;-86
2023/11/14 03:51:39;;;;;;;;;;;;;;;4.77;83.86;99377.48;106407;1258;60666;-85
2023/11/14 03:54:06;;;;;;;;;;;;;;;4.78;83.76;99379.40;106616;1257;62064;-85
2023/11/14 03:56:33;;;;;;;;;;;;;;;4.78;83.74;99381.66;106195;1264;126305;-86
2023/11/14 03:59:00;;;;;;;;;;;;;;;4.78;83.81;99377.66;106370;1257;66043;-85
2023/11/14 04:01:26;;;;;;;;;;;;;;;4.77;83.81;99375.92;106305;1262;125018;-85
2023/11/14 04:03:53;;;;;;;;;;;;;;;4.77;83.82;99376.79;106471;1264;63630;-85
2023/11/14 04:06:20;;;;;;;;;;;;;;;4.78;83.84;99373.16;106337;1263;62052;-86
2023/11/14 04:08:46;;;;;;;;;;;;;;;4.76;83.77;99369.11;106306;1260;124766;-83
2023/11/14 04:11:13;;;;;;;;;;;;;;;4.75;83.85;99368.40;106317;1263;65973;-84
2023/11/14 04:13:40;;;;;;;;;;;;;;;4.75;83.89;99368.72;106152;1257;124926;-85
2023/11/14 04:16:06;;;;;;;;;;;;;;;4.71;83.69;99366.03;106405;1259;62072;-85
2023/11/14 04:18:33;;;;;;;;;;;;;;;4.71;83.95;99367.23;106444;1257;125141;-84
2023/11/14 04:20:59;;;;;;;;;;;;;;;4.73;84.06;99370.06;106413;1263;75420;-85
2023/11/14 04:23:26;;;;;;;;;;;;;;;4.74;84.11;99364.54;106321;1258;66276;-85
2023/11/14 04:25:53;;;;;;;;;;;;;;;4.75;84.06;99358.13;106405;1260;125640;-85
2023/11/14 04:28:19;;;;;;;;;;;;;;;4.73;84.04;99356.52;106274;1257;62113;-85
2023/11/14 04:30:46;;;;;;;;;;;;;;;4.74;84.02;99356.70;106330;1258;125002;-85
2023/11/14 04:33:12;;;;;;;;;;;;;;;4.75;84.09;99359.86;106302;1262;75396;-86
2023/11/14 04:35:39;;;;;;;;;;;;;;;4.77;84.14;99359.39;106340;1256;64753;-84
2023/11/14 04:38:06;;;;;;;;;;;;;;;4.78;84.17;99362.39;106331;1260;125376;-86
2023/11/14 04:40:33;;;;;;;;;;;;;;;4.80;84.18;99368.86;106440;1260;61961;-83
2023/11/14 04:42:59;;;;;;;;;;;;;;;4.81;84.22;99367.85;106329;1257;125482;-85
2023/11/14 04:45:27;;;;;;;;;;;;;;;4.82;84.31;99371.16;106338;1263;75484;-85
2023/11/14 04:47:53;;;;;;;;;;;;;;;4.85;84.33;99369.67;106313;1258;66310;-85
2023/11/14 04:50:20;;;;;;;;;;;;;;;4.88;84.24;99367.50;106217;1257;125238;-84
2023/11/14 04:52:47;;;;;;;;;;;;;;;4.91;84.38;99363.91;106462;1263;62213;-85
2023/11/14 04:55:13;;;;;;;;;;;;;;;4.94;84.44;99363.65;106387;1257;125093;-85
2023/11/14 04:57:40;;;;;;;;;;;;;;;4.95;84.33;99365.77;106438;1257;75033;-86
2023/11/14 05:00:08;;;;;;;;;;;;;;;4.95;84.31;99364.02;106606;1262;64779;-86
2023/11/14 05:02:35;;;;;;;;;;;;;;;4.96;84.34;99362.84;106467;1264;124898;-85
2023/11/14 05:05:02;;;;;;;;;;;;;;;5.01;84.42;99360.16;106570;1257;62146;-84
2023/11/14 05:07:28;;;;;;;;;;;;;;;5.04;84.47;99361.46;106334;1260;125180;-85
2023/11/14 05:09:55;;;;;;;;;;;;;;;5.02;84.25;99357.23;106363;1257;75612;-83
2023/11/14 05:12:22;;;;;;;;;;;;;;;5.00;84.17;99358.07;106232;1260;66290;-83
2023/11/14 05:14:48;;;;;;;;;;;;;;;5.02;84.32;99360.89;107626;1257;124685;-83
2023/11/14 05:17:15;;;;;;;;;;;;;;;5.04;84.37;99357.99;106549;1258;62070;-84
2023/11/14 05:19:42;;;;;;;;;;;;;;;5.04;84.41;99355.19;106419;1257;125157;-86
2023/11/14 05:22:09;;;;;;;;;;;;;;;5.04;84.42;99357.98;106726;1261;75495;-86
2023/11/14 05:24:35;;;;;;;;;;;;;;;5.09;84.43;99360.53;106532;1262;125655;-86
2023/11/14 05:27:03;;;;;;;;;;;;;;;5.10;84.43;99353.62;106744;1257;71496;-86
2023/11/14 05:29:29;;;;;;;;;;;;;;;5.10;84.46;99355.19;106644;1258;62102;-90
2023/11/14 05:31:57;;;;;;;;;;;;;;;5.10;84.41;99363.70;106609;1257;124755;-86
2023/11/14 05:34:23;;;;;;;;;;;;;;;5.10;84.40;99368.23;106742;1256;74609;-93
2023/11/14 05:36:59;;;;;;;;;;;;;;;5.12;84.54;99360.26;106507;1258;124958;-90
2023/11/14 05:39:26;;;;;;;;;;;;;;;5.15;84.44;99354.62;106436;1260;71871;-85
2023/11/14 05:41:52;;;;;;;;;;;;;;;5.16;84.58;99352.90;106390;1257;62172;-82
2023/11/14 05:44:19;;;;;;;;;;;;;;;5.15;84.46;99348.52;106170;1257;125024;-87
2023/11/14 05:46:46;;;;;;;;;;;;;;;5.14;84.63;99350.23;106452;1257;75469;-86
2023/11/14 05:49:13;;;;;;;;;;;;;;;5.17;84.66;99355.01;106338;1258;125318;-88
2023/11/14 05:51:39;;;;;;;;;;;;;;;5.18;84.54;99349.27;106466;1258;71059;-89
2023/11/14 05:54:06;;;;;;;;;;;;;;;5.20;84.73;99353.52;106917;1261;62150;-88
2023/11/14 05:56:33;;;;;;;;;;;;;;;5.23;84.78;99352.54;106503;1262;125161;-85
2023/11/14 05:58:59;;;;;;;;;;;;;;;5.24;84.76;99352.05;106543;1257;75543;-86
2023/11/14 06:01:26;;;;;;;;;;;;;;;5.26;84.83;99352.96;106412;1257;126056;-84
2023/11/14 06:03:53;;;;;;;;;;;;;;;5.28;84.74;99352.48;106555;1257;71356;-86
2023/11/14 06:06:19;;;;;;;;;;;;;;;5.29;84.81;99356.31;106423;1258;62685;-86
2023/11/14 06:08:46;;;;;;;;;;;;;;;5.29;84.73;99360.32;106279;1263;124808;-87
2023/11/14 06:11:13;;;;;;;;;;;;;;;5.31;84.80;99362.80;106328;1258;73924;-87
2023/11/14 06:13:39;;;;;;;;;;;;;;;5.34;84.95;99369.15;106255;1257;125110;-87
2023/11/14 06:16:06;;;;;;;;;;;;;;;5.36;84.86;99374.76;106332;1257;71384;-87
2023/11/14 06:18:33;;;;;;;;;;;;;;;5.37;84.97;99371.48;106409;1257;125095;-87
2023/11/14 06:21:00;;;;;;;;;;;;;;;5.41;84.99;99375.58;106735;1258;61995;-89
2023/11/14 06:23:26;;;;;;;;;;;;;;;5.43;84.99;99376.67;106950;1258;75496;-90
2023/11/14 06:25:54;;;;;;;;;;;;;;;5.42;84.93;99375.27;106754;1257;124850;-88
2023/11/14 06:28:20;;;;;;;;;;;;;;;5.43;84.98;99371.98;106786;1257;71172;-86
2023/11/14 06:30:47;;;;;;;;;;;;;;;5.45;85.05;99371.84;106706;1257;126066;-87
2023/11/14 06:33:14;;;;;;;;;;;;;;;5.46;85.03;99366.46;106788;1261;62047;-87
2023/11/14 06:35:40;;;;;;;;;;;;;;;5.47;85.06;99367.01;106547;1257;76495;-87
2023/11/14 06:38:07;;;;;;;;;;;;;;;5.47;85.15;99364.77;106581;1258;126626;-86
2023/11/14 06:40:33;;;;;;;;;;;;;;;5.48;85.17;99359.73;106501;1261;72778;-86
2023/11/14 06:43:00;;;;;;;;;;;;;;;5.49;85.14;99357.48;106386;1257;125069;-86
2023/11/14 06:45:27;;;;;;;;;;;;;;;5.50;85.12;99357.34;106760;1258;62049;-86
2023/11/14 06:47:53;;;;;;;;;;;;;;;5.51;85.16;99356.14;106675;1261;74306;-87
2023/11/14 06:50:21;;;;;;;;;;;;;;;5.52;85.13;99353.36;106242;1261;124939;-86
2023/11/14 06:52:47;;;;;;;;;;;;;;;5.52;85.15;99349.02;106559;1262;71842;-85
2023/11/14 06:55:14;;;;;;;;;;;;;;;5.51;85.15;99344.32;106580;1257;125777;-86
2023/11/14 06:57:41;;;;;;;;;;;;;;;5.49;85.10;99338.52;106570;1258;62601;-85
2023/11/14 07:00:08;;;;;;;;;;;;;;;5.48;85.12;99337.11;106544;1257;75574;-86
2023/11/14 07:02:35;;;;;;;;;;;;;;;5.51;85.36;99333.70;106333;1258;125908;-86
2023/11/14 07:05:02;;;;;;;;;;;;;;;5.54;85.35;99332.71;106534;1263;73069;-87
2023/11/14 07:07:29;;;;;;;;;;;;;;;5.56;85.46;99331.91;106584;1257;123667;-87
2023/11/14 07:09:58;;;;;;;;;;;;;;;5.61;85.44;99342.46;106845;1258;62009;-87
2023/11/14 07:12:24;;;;;;;;;;;;;;;5.63;85.45;99343.71;106829;1258;74156;-86
2023/11/14 07:14:51;;;;;;;;;;;;;;;5.67;85.45;99336.67;106704;1260;66854;-87
2023/11/14 07:17:20;;;;;;;;;;;;;;;5.71;85.45;99337.96;106747;1258;72993;-86
2023/11/14 07:19:47;;;;;;;;;;;;;;;5.74;85.41;99338.55;106865;1257;124959;-86
2023/11/14 07:22:14;;;;;;;;;;;;;;;5.79;85.52;99338.14;106737;1262;62119;-87
2023/11/14 07:24:43;;;;;;;;;;;;;;;5.81;85.35;99336.09;106413;1259;125488;-86
2023/11/14 07:27:09;;;;;;;;;;;;;;;5.83;85.44;99335.97;106545;1260;66120;-86
2023/11/14 07:29:36;;;;;;;;;;;;;;;5.88;85.47;99333.27;106532;1257;71446;-86
2023/11/14 07:32:03;;;;;;;;;;;;;;;5.92;85.39;99331.11;106376;1259;125070;-87
2023/11/14 07:34:30;;;;;;;;;;;;;;;5.96;85.46;99328.77;106457;1258;62120;-86
2023/11/14 07:36:56;;;;;;;;;;;;;;;6.00;85.53;99332.36;106311;1258;125016;-86
2023/11/14 07:39:23;;;;;;;;;;;;;;;6.02;85.40;99325.96;106503;1263;66304;-87
2023/11/14 07:41:51;;;;;;;;;;;;;;;6.07;85.42;99323.61;106494;1257;71625;-87
2023/11/14 07:44:17;;;;;;;;;;;;;;;6.07;85.27;99319.08;106170;1258;125879;-87
2023/11/14 07:46:44;;;;;;;;;;;;;;;6.08;85.22;99316.49;106472;1258;62873;-87
2023/11/14 07:49:11;;;;;;;;;;;;;;;6.11;85.35;99308.18;106293;1257;124960;-87
2023/11/14 07:51:38;;;;;;;;;;;;;;;6.14;85.28;99314.16;106434;1258;66161;-87
2023/11/14 07:54:04;;;;;;;;;;;;;;;6.14;85.23;99312.43;106447;1260;73315;-87
2023/11/14 07:56:32;;;;;;;;;;;;;;;6.17;85.23;99315.61;106629;1257;124856;-87
2023/11/14 07:58:59;;;;;;;;;;;;;;;6.18;85.25;99312.67;106563;1257;61971;-86
2023/11/14 08:01:25;;;;;;;;;;;;;;;6.18;85.19;99306.76;106525;1263;124881;-86
2023/11/14 08:03:52;;;;;;;;;;;;;;;6.19;85.20;99303.65;106548;1258;66089;-85
2023/11/14 08:06:18;;;;;;;;;;;;;;;6.23;85.31;99309.80;106398;1257;71453;-86
2023/11/14 08:08:46;;;;;;;;;;;;;;;6.26;85.36;99309.01;106419;1257;124832;-86
2023/11/14 08:11:12;;;;;;;;;;;;;;;6.32;85.44;99308.77;106628;1256;62230;-87
2023/11/14 08:13:39;;;;;;;;;;;;;;;6.36;85.41;99309.90;106246;1257;124988;-86
2023/11/14 08:16:06;;;;;;;;;;;;;;;6.41;85.42;99307.36;106523;1257;65103;-86
2023/11/14 08:18:33;;;;;;;;;;;;;;;6.46;85.40;99310.41;106436;1258;125145;-86
2023/11/14 08:20:59;;;;;;;;;;;;;;;6.50;85.39;99305.60;106361;1257;62120;-85
2023/11/14 08:23:26;;;;;;;;;;;;;;;6.52;85.34;99304.77;106394;1258;61979;-87
2023/11/14 08:25:53;;;;;;;;;;;;;;;6.55;85.35;99306.92;106209;1257;124857;-86
2023/11/14 08:28:19;;;;;;;;;;;;;;;6.56;85.23;99304.51;106441;1257;64036;-86
2023/11/14 08:30:46;;;;;;;;;;;;;;;6.57;85.16;99306.62;106359;1261;125204;-86
2023/11/14 08:33:13;;;;;;;;;;;;;;;6.58;85.19;99306.10;106357;1259;62016;-86
2023/11/14 08:35:39;;;;;;;;;;;;;;;6.58;85.15;99300.18;106414;1257;62056;-86
2023/11/14 08:38:06;;;;;;;;;;;;;;;6.60;85.19;99306.14;106569;1256;123892;-86
2023/11/14 08:40:33;;;;;;;;;;;;;;;6.63;85.31;99306.89;106432;1258;66341;-86
2023/11/14 08:43:00;;;;;;;;;;;;;;;6.68;85.37;99302.78;106538;1258;125104;-86
2023/11/14 08:45:29;;;;;;;;;;;;;;;6.70;85.28;99299.52;106551;1257;62270;-88
2023/11/14 08:47:56;;;;;;;;;;;;;;;6.71;85.14;99295.70;106708;1258;62020;-86
2023/11/14 08:50:23;;;;;;;;;;;;;;;6.75;85.26;99296.80;106418;1257;125208;-89
2023/11/14 08:52:50;;;;;;;;;;;;;;;6.83;85.45;99294.16;106555;1257;64891;-88
2023/11/14 08:55:17;;;;;;;;;;;;;;;6.96;85.56;99291.74;106488;1256;124796;-87
2023/11/14 08:57:43;;;;;;;;;;;;;;;7.11;85.64;99288.66;106475;1256;62074;-86
2023/11/14 09:00:12;;;;;;;;;;;;;;;7.25;85.46;99287.31;106593;1256;61986;-86
2023/11/14 09:02:39;;;;;;;;;;;;;;;7.38;85.39;99288.02;106698;1257;124769;-86
2023/11/14 09:05:09;;;;;;;;;;;;;;;7.53;85.37;99289.27;106657;1258;65622;-86
2023/11/14 09:07:36;;;;;;;;;;;;;;;7.62;85.18;99284.15;106508;1256;123931;-86
2023/11/14 09:10:04;;;;;;;;;;;;;;;7.62;84.87;99281.20;106533;1262;60142;-85
2023/11/14 09:12:32;;;;;;;;;;;;;;;7.62;84.66;99280.83;106430;1257;125034;-87
2023/11/14 09:14:59;;;;;;;;;;;;;;;7.62;84.62;99278.57;106506;1257;75467;-86
2023/11/14 09:17:25;;;;;;;;;;;;;;;7.63;84.61;99272.81;106565;1257;64638;-85
2023/11/14 09:19:52;;;;;;;;;;;;;;;7.59;84.27;99271.04;106413;1258;125169;-85
2023/11/14 09:22:19;;;;;;;;;;;;;;;7.59;84.53;99265.09;106421;1262;198025;-86
2023/11/14 09:24:46;;;;;;;;;;;;;;;7.62;84.56;99263.38;106324;1257;125199;-85
2023/11/14 09:27:12;;;;;;;;;;;;;;;7.62;84.48;99261.27;106465;1259;75611;-86
2023/11/14 09:29:39;;;;;;;;;;;;;;;7.62;84.43;99260.41;106492;1257;66284;-86
2023/11/14 09:32:06;;;;;;;;;;;;;;;7.58;84.49;99253.74;106361;1257;125839;-87
2023/11/14 09:34:32;;;;;;;;;;;;;;;7.58;84.50;99248.67;106536;1258;62160;-86
2023/11/14 09:36:59;;;;;;;;;;;;;;;7.60;84.51;99246.94;106475;1258;123930;-86
2023/11/14 09:39:27;;;;;;;;;;;;;;;7.59;84.48;99248.68;106591;1257;75619;-86
2023/11/14 09:41:54;;;;;;;;;;;;;;;7.61;84.59;99244.16;106595;1261;63955;-86
2023/11/14 09:44:21;;;;;;;;;;;;;;;7.63;84.57;99244.90;106391;1263;127191;-87
2023/11/14 09:46:49;;;;;;;;;;;;;;;7.70;84.83;99238.16;106452;1258;61897;-86
2023/11/14 09:49:15;;;;;;;;;;;;;;;7.79;84.97;99235.66;106328;1259;124938;-86
2023/11/14 09:51:42;;;;;;;;;;;;;;;7.87;84.87;99239.77;106557;1261;75562;-86
2023/11/14 09:54:09;;;;;;;;;;;;;;;7.95;84.95;99234.95;106395;1257;66685;-86
2023/11/14 09:56:35;;;;;;;;;;;;;;;8.09;85.11;99228.98;106581;1257;123824;-87
2023/11/14 09:59:02;;;;;;;;;;;;;;;8.27;85.25;99230.23;106452;1259;62138;-87
2023/11/14 10:01:29;;;;;;;;;;;;;;;8.39;85.00;99229.48;106265;1263;125245;-86
2023/11/14 10:03:55;;;;;;;;;;;;;;;8.47;84.91;99229.06;106461;1258;74207;-87
2023/11/14 10:06:22;;;;;;;;;;;;;;;8.53;84.72;99228.05;106364;1257;66276;-86
2023/11/14 10:08:50;;;;;;;;;;;;;;;8.64;84.83;99220.98;106376;1258;124634;-86
2023/11/14 10:11:16;;;;;;;;;;;;;;;8.76;84.77;99219.67;106413;1258;62119;-87
2023/11/14 10:13:44;;;;;;;;;;;;;;;8.86;84.63;99212.05;106383;1258;125181;-85
2023/11/14 10:16:29;;;;;;;;;;;;;;;8.95;84.58;99207.92;106496;1258;74702;-86
2023/11/14 10:18:55;;;;;;;;;;;;;;;9.06;84.49;99207.47;106355;1259;124450;-86
2023/11/14 10:21:23;;;;;;;;;;;;;;;9.12;84.33;99205.93;106321;1262;72774;-86
2023/11/14 10:23:50;;;;;;;;;;;;;;;9.15;84.16;99204.89;106384;1258;60015;-86
2023/11/14 10:26:16;;;;;;;;;;;;;;;9.16;83.99;99200.70;106357;1258;125155;-86
2023/11/14 10:28:50;;;;;;;;;;;;;;;9.20;84.06;99200.03;106386;1264;75575;-87
2023/11/14 10:31:31;;;;;;;;;;;;;;;9.21;83.95;99191.28;106069;1260;124375;-87
2023/11/14 10:33:58;;;;;;;;;;;;;;;9.21;83.83;99189.89;106443;1257;72747;-87
2023/11/14 10:36:24;;;;;;;;;;;;;;;9.20;83.77;99186.56;106361;1258;62095;-87
2023/11/14 10:39:03;;;;;;;;;;;;;;;9.21;83.84;99179.90;106480;1258;62152;-87
2023/11/14 10:41:31;;;;;;;;;;;;;;;9.26;84.04;99179.40;106401;1260;74885;-87
2023/11/14 10:44:05;;;;;;;;;;;;;;;9.36;84.11;99177.35;106443;1256;124089;-85
2023/11/14 10:46:32;;;;;;;;;;;;;;;9.42;84.16;99173.52;106443;1257;72726;-88
2023/11/14 10:48:59;;;;;;;;;;;;;;;9.49;84.17;99165.85;106473;1258;124142;-86
2023/11/14 10:51:26;;;;;;;;;;;;;;;9.57;84.32;99163.77;106517;1258;60093;-80
2023/11/14 10:53:54;;;;;;;;;;;;;;;9.71;84.37;99161.36;106454;1258;75491;-86
2023/11/14 10:56:21;;;;;;;;;;;;;;;9.85;84.46;99160.00;106468;1259;124301;-87
2023/11/14 10:58:48;;;;;;;;;;;;;;;9.95;84.24;99157.58;106488;1258;71471;-87
2023/11/14 11:01:14;;;;;;;;;;;;;;;10.01;84.14;99156.19;106444;1256;124956;-86
2023/11/14 11:03:41;;;;;;;;;;;;;;;10.05;83.97;99155.48;106729;1256;61973;-86
2023/11/14 11:06:09;;;;;;;;;;;;;;;10.09;83.92;99157.23;106772;1257;74614;-86
2023/11/14 11:08:35;;;;;;;;;;;;;;;10.12;83.94;99152.69;106393;1258;125112;-82
2023/11/14 11:11:03;;;;;;;;;;;;;;;10.16;83.98;99151.11;106464;1258;73272;-81
2023/11/14 11:13:29;;;;;;;;;;;;;;;10.19;83.84;99148.85;106210;1262;124965;-81
2023/11/14 11:15:57;;;;;;;;;;;;;;;10.18;83.85;99148.48;106512;1257;60878;-81
2023/11/14 11:18:24;;;;;;;;;;;;;;;10.12;83.56;99153.39;106422;1257;75402;-82
2023/11/14 11:20:50;;;;;;;;;;;;;;;10.05;83.61;99152.33;106839;1257;124775;-81
2023/11/14 11:23:18;;;;;;;;;;;;;;;9.99;83.57;99155.14;106302;1257;71913;-81
2023/11/14 11:25:46;;;;;;;;;;;;;;;9.94;83.60;99150.36;106245;1258;125316;-81
2023/11/14 11:28:19;;;;;;;;;;;;;;;9.91;83.75;99148.64;106404;1256;63448;-81
2023/11/14 11:31:05;;;;;;;;;;;;;;;9.89;83.78;99147.39;106201;1257;124953;-81
2023/11/14 11:33:32;;;;;;;;;;;;;;;9.90;83.92;99145.48;106427;1261;66290;-81
2023/11/14 11:36:17;;;;;;;;;;;;;;;9.90;84.01;99143.37;106626;1258;71420;-86
2023/11/14 11:39:00;;;;;;;;;;;;;;;9.89;84.18;99139.69;106344;1257;124610;-86
2023/11/14 11:41:27;;;;;;;;;;;;;;;9.92;84.36;99132.68;106493;1262;62116;-88
2023/11/14 11:44:00;;;;;;;;;;;;;;;9.95;84.28;99133.57;106172;1259;125153;-86
2023/11/14 11:46:33;;;;;;;;;;;;;;;9.99;84.58;99133.40;106492;1258;65108;-86
2023/11/14 11:49:12;;;;;;;;;;;;;;;10.06;84.58;99134.46;106150;1258;125189;-87
2023/11/14 11:51:48;;;;;;;;;;;;;;;10.14;84.87;99131.13;106500;1257;62093;-86
2023/11/14 11:54:31;;;;;;;;;;;;;;;10.26;84.98;99129.38;106502;1257;61357;-87
2023/11/14 11:57:04;;;;;;;;;;;;;;;10.33;84.94;99127.14;106458;1258;75482;-86
2023/11/14 11:59:41;;;;;;;;;;;;;;;10.39;84.95;99128.89;107003;1258;66319;-86
2023/11/14 12:02:11;;;;;;;;;;;;;;;10.46;84.96;99127.13;106235;1259;125240;-86
2023/11/14 12:04:38;;;;;;;;;;;;;;;10.50;84.99;99127.14;106433;1256;61979;-86
2023/11/14 12:07:05;;;;;;;;;;;;;;;10.50;84.91;99126.42;106394;1256;125325;-86
2023/11/14 12:09:32;;;;;;;;;;;;;;;10.49;84.83;99125.73;106496;1258;75509;-85
2023/11/14 12:11:59;;;;;;;;;;;;;;;10.49;84.93;99124.15;106326;1258;65348;-86
2023/11/14 12:14:29;;;;;;;;;;;;;;;10.51;84.99;99125.56;106553;1257;124063;-86
2023/11/14 12:16:57;;;;;;;;;;;;;;;10.49;84.98;99126.96;106845;1258;62091;-85
2023/11/14 12:19:23;;;;;;;;;;;;;;;10.52;85.11;99128.89;106527;1257;124949;-86
2023/11/14 12:21:53;;;;;;;;;;;;;;;10.53;85.26;99130.64;106533;1263;75241;-86
2023/11/14 12:24:19;;;;;;;;;;;;;;;10.58;85.36;99126.77;106624;1261;66264;-87
2023/11/14 12:26:46;;;;;;;;;;;;;;;10.63;85.63;99127.12;106564;1258;123828;-86
2023/11/14 12:29:13;;;;;;;;;;;;;;;10.68;85.50;99127.46;106594;1258;62056;-88
2023/11/14 12:31:46;;;;;;;;;;;;;;;10.71;85.45;99126.93;106506;1257;125020;-86
2023/11/14 12:34:29;;;;;;;;;;;;;;;10.73;85.50;99125.18;106547;1257;74215;-87
2023/11/14 12:37:09;;;;;;;;;;;;;;;10.77;85.53;99125.70;106560;1257;125366;-87
2023/11/14 12:39:36;;;;;;;;;;;;;;;10.77;85.46;99121.65;106487;1257;71164;-87
2023/11/14 12:42:04;;;;;;;;;;;;;;;10.76;85.55;99120.27;106396;1257;62069;-87